West Descanso (73, 78, 625) Station Data

Red Flag Warning: No
Fire Weather Zone: 258
SDGE Region: Mountain Empire
Lat/Lon: 32.849/-116.63

Observations

Time Wind Speed/Gust Temp(F) RH Fuel Moist Fuel Temp(F) Dewpt(F) Tmax(F) Tmin(F) Accum Precip 10-min Precip SL Press(mb)
2/27 11:40pm 281 5 G 14 43° 100% - - 43° 45.1° 40.5° - - -
2/27 11:20pm 208 6 G 21 43° 100% - - 43° 45.1° 40.5° - - -
2/27 11:10pm 197 6 G 17 43° 100% - - 43° 45.1° 40.5° - - -
2/27 11:00pm 216 5 G 17 43° 100% - - 43° 45.1° 40.5° - - -
2/27 10:50pm 67 3 G 11 43° 100% - - 43° 45.1° 40.5° - - -
2/27 10:40pm 289 2 G 7 43° 100% - - 43° 45.1° 40.5° - - -
2/27 10:30pm 51 2 G 6 43° 100% - - 43° 45.1° 40.5° - - -
2/27 10:20pm 52 2 G 6 43° 100% - - 43° 45.1° 40.5° - - -
2/27 10:10pm 221 4 G 12 43° 100% - - 43° 45.1° 40.5° - - -
2/27 10:00pm 201 8 G 17 43° 100% - - 43° 45.1° 40.5° - - -
2/27 9:50pm 199 9 G 16 43° 100% - - 43° 45.1° 40.5° - - -
2/27 9:40pm 198 9 G 16 43° 100% - - 43° 45.1° 40.5° - - -
2/27 9:30pm 206 7 G 14 43° 100% - - 43° 45.1° 40.5° - - -
2/27 9:20pm 210 6 G 13 43° 100% - - 43° 45.1° 40.5° - - -
2/27 9:10pm 204 9 G 17 43° 100% - - 43° 45.1° 40.5° - - -
2/27 9:00pm 205 10 G 19 43° 100% - - 43° 45.1° 40.5° - - -
2/27 8:50pm 195 10 G 18 43° 100% - - 43° 45.1° 40.5° - - -
2/27 8:40pm 201 10 G 18 43° 100% - - 43° 45.1° 40.5° - - -
2/27 8:30pm 198 10 G 17 43° 100% - - 43° 45.1° 40.5° - - -
2/27 8:20pm 191 9 G 18 43° 100% - - 43° 45.1° 40.5° - - -
2/27 8:10pm 186 10 G 19 43° 100% - - 43° 45.1° 40.5° - - -
2/27 8:00pm 187 9 G 21 43° 100% - - 43° 45.1° 40.5° - - -
2/27 7:50pm 181 12 G 23 43° 100% - - 43° 45.1° 40.5° - - -
2/27 7:40pm 179 11 G 20 42° 100% - - 42° 45.1° 40.5° - - -
2/27 7:30pm 178 11 G 17 42° 100% - - 42° 45.1° 40.5° - - -
2/27 7:20pm 177 10 G 17 42° 100% - - 42° 45.1° 40.5° - - -
2/27 7:10pm 177 10 G 16 42° 100% - - 42° 45.1° 40.5° - - -
2/27 7:00pm 177 9 G 14 42° 100% - - 42° 45.1° 40.5° - - -
2/27 6:50pm 179 8 G 15 42° 100% - - 42° 45.1° 40.5° - - -
2/27 6:40pm 186 8 G 12 42° 100% - - 42° 45.1° 40.5° - - -
2/27 6:30pm 180 9 G 16 42° 100% - - 42° 45.1° 40.5° - - -
2/27 6:20pm 182 11 G 18 42° 100% - - 42° 45.1° 40.5° - - -
2/27 6:10pm 182 10 G 16 42° 100% - - 42° 45.1° 40.5° - - -
2/27 6:00pm 184 10 G 17 42° 100% - - 42° 45.1° 40.5° - - -
2/27 5:50pm 190 9 G 17 43° 100% - - 43° 45.1° 40.5° - - -
2/27 5:40pm 197 7 G 16 43° 100% - - 43° 45.1° 40.5° - - -
2/27 5:30pm 208 6 G 15 43° 100% - - 43° 45.1° 40.5° - - -
2/27 5:20pm 197 8 G 18 43° 100% - - 43° 45.1° 40.5° - - -
2/27 5:10pm 202 10 G 20 43° 100% - - 43° 45.1° 40.5° - - -
2/27 5:00pm 194 11 G 20 44° 100% - - 43° 45.1° 40.5° - - -
2/27 4:50pm 192 9 G 16 43° 100% - - 43° 45.1° 40.5° - - -
2/27 4:40pm 188 9 G 17 43° 100% - - 43° 45.1° 40.5° - - -
2/27 4:30pm 189 9 G 17 44° 100% - - 44° 45.1° 40.5° - - -
2/27 4:20pm 186 11 G 18 43° 100% - - 43° 45.1° 40.5° - - -
2/27 4:10pm 191 10 G 18 43° 100% - - 43° 45.1° 40.5° - - -
2/27 4:00pm 199 10 G 20 43° 100% - - 43° 45.1° 40.5° - - -
2/27 3:50pm 201 8 G 17 43° 100% - - 43° 45.1° 40.5° - - -
2/27 3:40pm 207 5 G 11 43° 100% - - 43° 45.1° 40.5° - - -
2/27 3:30pm 199 7 G 23 43° 100% - - 43° 45.1° 40.5° - - -
2/27 3:20pm 217 5 G 13 44° 100% - - 44° 45.1° 40.5° - - -
2/27 3:10pm 199 7 G 14 43° 100% - - 43° 45.1° 40.5° - - -
2/27 3:00pm 203 9 G 18 43° 100% - - 43° 45.1° 40.5° - - -
2/27 2:50pm 203 7 G 16 44° 100% - - 44° 45.1° 40.5° - - -
2/27 2:40pm 201 5 G 13 44° 100% - - 44° 45.1° 40.5° - - -
2/27 2:30pm 206 9 G 19 44° 100% - - 44° 45.1° 40.5° - - -
2/27 2:20pm 204 10 G 22 44° 100% - - 44° 45.1° 40.5° - - -
2/27 2:10pm 200 9 G 16 44° 100% - - 44° 45.1° 40.5° - - -
2/27 2:00pm 203 9 G 23 44° 100% - - 44° 45.1° 40.5° - - -
2/27 1:50pm 207 8 G 18 45° 100% - - 44° 45.1° 40.5° - - -
2/27 1:40pm 207 6 G 14 45° 100% - - 44° 45.1° 40.5° - - -
2/27 1:30pm 196 9 G 20 44° 100% - - 44° 45.1° 40.5° - - -
2/27 1:20pm 192 9 G 15 44° 100% - - 44° 45.1° 40.5° - - -
2/27 1:10pm 196 9 G 17 44° 100% - - 44° 45.1° 40.5° - - -
2/27 1:00pm 198 9 G 19 45° 100% - - 44° 45.1° 40.5° - - -
2/27 12:50pm 200 9 G 21 45° 100% - - 45° 45.1° 40.5° - - -
2/27 12:40pm 201 10 G 20 45° 100% - - 45° 45.1° 40.5° - - -
2/27 12:30pm 204 10 G 17 45° 100% - - 45° 45.1° 40.5° - - -
2/27 12:20pm 198 9 G 19 44° 100% - - 44° 45.1° 40.5° - - -
2/27 12:10pm 204 7 G 14 44° 100% - - 44° 45.1° 40.5° - - -
2/27 12:00pm 225 4 G 13 44° 100% - - 44° 45.1° 40.5° - - -
2/27 11:50am 204 9 G 18 44° 100% - - 44° 45.1° 40.5° - - -
2/27 11:40am 197 12 G 24 44° 100% - - 44° 45.1° 40.5° - - -
2/27 11:30am 196 10 G 19 44° 100% - - 44° 45.1° 40.5° - - -
2/27 11:20am 202 11 G 22 44° 100% - - 44° 45.1° 40.5° - - -
2/27 11:10am 203 12 G 26 44° 100% - - 44° 45.1° 40.5° - - -
2/27 11:00am 189 13 G 24 45° 100% - - 45° 45.1° 40.5° - - -
2/27 10:50am 197 9 G 22 45° 100% - - 45° 45.1° 40.5° - - -
2/27 10:40am 200 10 G 17 45° 100% - - 45° 45.1° 40.5° - - -
2/27 10:30am 200 10 G 20 45° 100% - - 45° 45° 40.5° - - -
2/27 10:20am 196 9 G 16 45° 100% - - 45° 45° 40.5° - - -
2/27 10:10am 203 11 G 19 45° 100% - - 45° 45° 40.5° - - -
2/27 10:00am 203 9 G 20 45° 100% - - 45° 45° 40.5° - - -
2/27 9:50am 200 10 G 19 45° 100% - - 45° 44.9° 40.5° - - -
2/27 9:40am 199 9 G 15 45° 100% - - 45° 44.9° 40.5° - - -
2/27 9:30am 191 8 G 16 45° 100% - - 45° 44.9° 40.5° - - -
2/27 9:20am 193 10 G 21 45° 100% - - 44° 44.9° 40.5° - - -
2/27 9:10am 189 10 G 17 45° 100% - - 45° 44.9° 40.5° - - -
2/27 9:00am 195 11 G 23 45° 100% - - 45° 44.9° 40.5° - - -
2/27 8:50am 191 10 G 16 45° 100% - - 45° 44.9° 40.5° - - -
2/27 8:40am 193 10 G 19 45° 100% - - 45° 44.9° 40.5° - - -
2/27 8:30am 195 7 G 13 45° 100% - - 45° 44.9° 40.5° - - -
2/27 8:20am 202 7 G 14 45° 100% - - 45° 44.9° 40.5° - - -
2/27 8:10am 202 6 G 13 45° 100% - - 45° 44.9° 40.5° - - -
2/27 8:00am 203 7 G 18 45° 100% - - 45° 44.9° 40.5° - - -
2/27 7:50am 200 9 G 19 45° 100% - - 45° 44.9° 40.5° - - -
2/27 7:40am 194 8 G 15 45° 100% - - 45° 44.9° 40.5° - - -
2/27 7:30am 195 7 G 13 45° 100% - - 45° 44.9° 40.5° - - -
2/27 7:20am 199 5 G 11 45° 100% - - 45° 44.8° 40.5° - - -
2/27 7:10am 205 5 G 10 45° 100% - - 45° 44.8° 40.5° - - -
2/27 7:00am 205 5 G 11 45° 100% - - 45° 44.8° 40.5° - - -
2/27 6:50am 210 5 G 11 44° 100% - - 44° 44.6° 40.5° - - -
2/27 6:40am 208 7 G 15 44° 100% - - 44° 44.6° 40.5° - - -
2/27 6:30am 204 8 G 15 44° 100% - - 44° 44.5° 40.5° - - -
2/27 6:20am 201 9 G 17 44° 100% - - 44° 44.5° 40.5° - - -
2/27 6:10am 192 9 G 19 44° 100% - - 44° 44.5° 40.5° - - -
2/27 6:00am 204 9 G 19 44° 100% - - 44° 44.5° 40.5° - - -
2/27 5:50am 197 9 G 19 44° 100% - - 44° 44.5° 40.5° - - -
2/27 5:40am 189 10 G 16 44° 100% - - 44° 44.3° 40.5° - - -
2/27 5:30am 188 10 G 16 44° 100% - - 44° 44.3° 40.5° - - -
2/27 5:20am 188 9 G 17 44° 100% - - 44° 44.1° 40.5° - - -
2/27 5:10am 190 8 G 15 44° 100% - - 44° 44° 40.5° - - -
2/27 5:00am 192 8 G 18 44° 100% - - 44° 44° 40.5° - - -
2/27 4:50am 187 7 G 13 44° 100% - - 44° 43.8° 40.5° - - -
2/27 4:40am 185 8 G 12 44° 100% - - 44° 43.7° 40.5° - - -
2/27 4:30am 189 7 G 14 43° 100% - - 43° 43.7° 40.5° - - -
2/27 4:20am 185 8 G 14 43° 100% - - 43° 43.7° 40.5° - - -
2/27 4:10am 183 8 G 15 43° 100% - - 43° 43.7° 40.5° - - -
2/27 4:00am 186 7 G 14 43° 100% - - 43° 43.6° 40.5° - - -
2/27 3:50am 187 8 G 14 43° 100% - - 43° 43.6° 40.5° - - -
2/27 3:40am 189 8 G 15 43° 100% - - 43° 43.6° 40.5° - - -
2/27 3:30am 189 8 G 13 43° 100% - - 43° 43.6° 40.5° - - -
2/27 3:20am 192 8 G 14 43° 100% - - 43° 43.6° 40.5° - - -
2/27 3:10am 179 5 G 8 43° 100% - - 43° 43.2° 40.5° - - -
2/27 3:00am 179 5 G 9 43° 100% - - 43° 42.9° 40.5° - - -
2/27 2:50am 184 5 G 8 43° 100% - - 43° 42.8° 40.5° - - -
2/27 2:40am 179 5 G 8 42° 100% - - 42° 42.6° 40.5° - - -
2/27 2:30am 189 5 G 11 42° 100% - - 42° 42.6° 40.5° - - -
2/27 2:20am 194 6 G 12 42° 100% - - 42° 42.6° 40.5° - - -
2/27 2:10am 194 6 G 14 42° 100% - - 42° 42.5° 40.5° - - -
2/27 2:00am 198 5 G 8 42° 100% - - 42° 42.4° 40.5° - - -
2/27 1:50am 195 5 G 9 42° 100% - - 42° 42.3° 40.5° - - -
2/27 1:40am 195 5 G 9 42° 100% - - 42° 42.3° 40.5° - - -
2/27 1:30am 198 4 G 8 42° 100% - - 42° 42.2° 40.5° - - -
2/27 1:20am 202 4 G 8 42° 100% - - 42° 42.1° 40.5° - - -
2/27 1:10am 198 4 G 7 42° 100% - - 42° 42° 40.5° - - -
2/27 1:00am 206 4 G 9 42° 100% - - 42° 42° 40.5° - - -
2/27 12:50am 196 4 G 9 42° 100% - - 42° 41.8° 40.5° - - -
2/27 12:40am 195 5 G 9 41° 100% - - 41° 41.5° 40.5° - - -
2/27 12:30am 199 5 G 10 41° 100% - - 41° 41.5° 40.5° - - -
2/27 12:20am 206 4 G 8 41° 100% - - 41° 41.3° 40.5° - - -
2/27 12:10am 190 4 G 9 41° 100% - - 41° 41.1° 40.5° - - -
2/27 12:00am 186 4 G 8 40° 100% - - 40° 43.4° 35.8° - - -
2/26 11:50pm 184 4 G 7 40° 100% - - 40° 43.4° 35.8° - - -
2/26 11:40pm 197 4 G 8 40° 100% - - 40° 43.4° 35.8° - - -
2/26 11:30pm 201 4 G 10 40° 100% - - 40° 43.4° 35.8° - - -
2/26 11:20pm 199 5 G 11 40° 100% - - 40° 43.4° 35.8° - - -
2/26 11:10pm 198 3 G 8 39° 100% - - 39° 43.4° 35.8° - - -
2/26 11:00pm 202 2 G 6 39° 100% - - 39° 43.4° 35.8° - - -
2/26 10:50pm 188 3 G 6 38° 100% - - 38° 43.4° 35.8° - - -
2/26 10:40pm 171 3 G 6 38° 100% - - 38° 43.4° 35.8° - - -
2/26 10:30pm 173 3 G 6 37° 100% - - 37° 43.4° 35.8° - - -
2/26 10:20pm 188 2 G 5 37° 100% - - 37° 43.4° 35.8° - - -
2/26 10:10pm 188 3 G 5 38° 100% - - 38° 43.4° 35.8° - - -
2/26 10:00pm 186 4 G 8 38° 100% - - 38° 43.4° 35.8° - - -
2/26 9:50pm 190 4 G 7 38° 100% - - 38° 43.4° 35.8° - - -
2/26 9:40pm 203 4 G 8 38° 100% - - 38° 43.4° 35.8° - - -
2/26 9:30pm 206 3 G 10 37° 100% - - 37° 43.4° 35.8° - - -
2/26 9:20pm 205 4 G 11 37° 100% - - 37° 43.4° 35.8° - - -
2/26 9:10pm 205 3 G 10 37° 100% - - 37° 43.4° 35.8° - - -
2/26 9:00pm 59 2 G 7 37° 100% - - 37° 43.4° 35.8° - - -
2/26 8:50pm 31 2 G 7 37° 100% - - 37° 43.4° 35.8° - - -
2/26 8:40pm 254 2 G 6 38° 100% - - 38° 43.4° 35.8° - - -
2/26 8:30pm 64 2 G 7 38° 100% - - 38° 43.4° 35.8° - - -
2/26 8:20pm 53 2 G 6 38° 100% - - 38° 43.4° 35.8° - - -
2/26 8:10pm 62 3 G 8 37° 100% - - 37° 43.4° 35.8° - - -
2/26 8:00pm 34 2 G 8 38° 100% - - 38° 43.4° 35.8° - - -
2/26 7:50pm 213 3 G 9 38° 100% - - 38° 43.4° 35.8° - - -
2/26 7:40pm 220 3 G 8 38° 100% - - 38° 43.4° 35.8° - - -
2/26 7:30pm 207 3 G 10 38° 100% - - 38° 43.4° 35.8° - - -
2/26 7:20pm 208 5 G 14 38° 100% - - 38° 43.4° 35.8° - - -
2/26 7:10pm 200 4 G 12 39° 100% - - 39° 43.4° 35.8° - - -
2/26 7:00pm 208 3 G 8 39° 100% - - 39° 43.4° 35.8° - - -
2/26 6:50pm 295 2 G 10 38° 100% - - 38° 43.4° 35.8° - - -
2/26 6:40pm 329 2 G 8 39° 100% - - 39° 43.4° 35.8° - - -
2/26 6:30pm 179 2 G 9 39° 100% - - 39° 43.4° 35.8° - - -
2/26 6:20pm 71 2 G 7 39° 100% - - 39° 43.4° 35.8° - - -
2/26 6:10pm 9 2 G 8 39° 100% - - 39° 43.4° 35.8° - - -
2/26 6:00pm 199 3 G 9 39° 100% - - 39° 43.4° 35.8° - - -
2/26 5:50pm 210 3 G 10 39° 100% - - 39° 43.4° 35.8° - - -
2/26 5:40pm 259 2 G 8 39° 100% - - 39° 43.4° 35.8° - - -
2/26 5:30pm 36 2 G 7 39° 100% - - 39° 43.4° 35.8° - - -
2/26 5:20pm 38 2 G 7 40° 100% - - 40° 43.4° 35.8° - - -
2/26 5:10pm 43 3 G 9 40° 100% - - 40° 43.4° 35.8° - - -
2/26 5:00pm 34 2 G 7 40° 100% - - 40° 43.4° 35.8° - - -